createdAt,value
2018-03-28T00:01:23.572Z,5.60
2018-03-28T00:03:51.196Z,6.00
2018-03-28T00:06:18.796Z,5.50
2018-03-28T00:08:46.428Z,6.73
2018-03-28T00:11:14.032Z,5.80
2018-03-28T00:13:41.656Z,5.97
2018-03-28T00:16:09.345Z,6.10
2018-03-28T00:18:37.108Z,6.93
2018-03-28T00:21:04.708Z,6.77
2018-03-28T00:23:32.313Z,6.20
2018-03-28T00:25:59.940Z,6.30
2018-03-28T00:28:27.546Z,6.03
2018-03-28T00:30:55.172Z,6.10
2018-03-28T00:33:22.780Z,7.00
2018-03-28T00:35:50.440Z,5.90
2018-03-28T00:38:18.041Z,6.43
2018-03-28T00:40:45.800Z,7.00
2018-03-28T00:43:13.434Z,6.20
2018-03-28T00:45:41.064Z,6.73
2018-03-28T00:48:08.756Z,7.10
2018-03-28T00:50:36.384Z,6.57
2018-03-28T00:53:04.081Z,6.87
2018-03-28T00:55:31.749Z,5.90
2018-03-28T00:57:59.372Z,5.20
2018-03-28T01:00:26.972Z,6.93
2018-03-28T01:02:55.347Z,5.20
2018-03-28T01:05:23.008Z,6.17
2018-03-28T01:07:50.635Z,5.40
2018-03-28T01:10:18.232Z,4.73
2018-03-28T01:12:45.891Z,5.40
2018-03-28T01:15:13.562Z,5.73
2018-03-28T01:17:41.220Z,5.80
2018-03-28T01:20:08.890Z,5.47
2018-03-28T01:22:36.544Z,5.97
2018-03-28T01:25:04.145Z,6.27
2018-03-28T01:27:31.767Z,6.83
2018-03-28T01:29:59.433Z,6.27
2018-03-28T01:32:27.048Z,6.43
2018-03-28T01:34:54.679Z,6.00
2018-03-28T01:37:22.284Z,6.37
2018-03-28T01:39:49.984Z,5.87
2018-03-28T01:42:17.585Z,5.80
2018-03-28T01:44:45.204Z,6.27
2018-03-28T01:47:12.884Z,5.90
2018-03-28T01:49:40.507Z,6.23
2018-03-28T01:52:08.115Z,5.87
2018-03-28T01:54:35.742Z,5.90
2018-03-28T01:57:03.413Z,5.90
2018-03-28T01:59:31.041Z,6.53
2018-03-28T02:01:58.657Z,7.13
2018-03-28T02:04:26.291Z,7.13
2018-03-28T02:06:53.915Z,6.43
2018-03-28T02:09:21.548Z,6.70
2018-03-28T02:11:49.192Z,5.97
2018-03-28T02:14:16.820Z,5.97
2018-03-28T02:16:44.508Z,6.30
2018-03-28T02:19:12.144Z,6.23
2018-03-28T02:21:39.841Z,6.30
2018-03-28T02:24:07.465Z,5.50
2018-03-28T02:26:35.073Z,6.47
2018-03-28T02:29:02.729Z,5.90
2018-03-28T02:31:30.345Z,6.90
2018-03-28T02:33:57.980Z,7.80
2018-03-28T02:36:25.585Z,6.17
2018-03-28T02:38:53.222Z,6.30
2018-03-28T02:41:20.829Z,6.30
2018-03-28T02:43:48.490Z,6.63
2018-03-28T02:46:16.099Z,6.83
2018-03-28T02:48:43.715Z,7.10
2018-03-28T02:51:11.365Z,7.33
2018-03-28T02:53:38.967Z,6.97
2018-03-28T02:56:06.710Z,8.13
2018-03-28T02:58:34.321Z,7.33
2018-03-28T03:01:01.958Z,8.40
2018-03-28T03:03:29.569Z,8.07
2018-03-28T03:05:57.207Z,7.53
2018-03-28T03:08:24.922Z,8.00
2018-03-28T03:10:52.548Z,6.50
2018-03-28T03:13:20.153Z,6.50
2018-03-28T03:15:47.809Z,8.10
2018-03-28T03:18:15.465Z,7.93
2018-03-28T03:20:43.076Z,6.90
2018-03-28T03:23:10.704Z,7.23
2018-03-28T03:25:38.313Z,7.17
2018-03-28T03:28:05.944Z,7.33
2018-03-28T03:30:33.557Z,7.77
2018-03-28T03:33:01.181Z,7.10
2018-03-28T03:35:28.797Z,7.60
2018-03-28T03:37:56.461Z,7.40
2018-03-28T03:40:24.069Z,8.90
2018-03-28T03:42:51.787Z,8.80
2018-03-28T03:45:19.395Z,9.53
2018-03-28T03:47:47.029Z,8.87
2018-03-28T03:50:14.637Z,10.30
2018-03-28T03:52:42.288Z,9.23
2018-03-28T03:55:09.925Z,10.10
2018-03-28T03:57:37.541Z,9.23
2018-03-28T04:00:05.181Z,9.63
2018-03-28T04:02:32.792Z,9.30
2018-03-28T04:05:00.444Z,9.70
2018-03-28T04:07:28.058Z,10.53
2018-03-28T04:09:55.689Z,9.83
2018-03-28T04:12:23.388Z,11.02
2018-03-28T04:14:51.037Z,9.50
2018-03-28T04:17:18.651Z,9.40
2018-03-28T04:19:46.266Z,10.20
2018-03-28T04:22:13.905Z,9.30
2018-03-28T04:24:41.517Z,10.03
2018-03-28T04:27:09.209Z,8.87
2018-03-28T04:29:36.877Z,9.40
2018-03-28T04:32:04.518Z,10.23
2018-03-28T04:34:32.125Z,9.40
2018-03-28T04:36:59.852Z,8.67
2018-03-28T04:39:27.533Z,7.93
2018-03-28T04:41:55.165Z,8.77
2018-03-28T04:44:22.777Z,8.77
2018-03-28T04:46:50.392Z,9.80
2018-03-28T04:49:18.068Z,9.80
2018-03-28T04:51:45.734Z,9.77
2018-03-28T04:54:13.409Z,10.63
2018-03-28T04:56:41.061Z,9.80
2018-03-28T04:59:08.721Z,11.10
2018-03-28T05:01:36.385Z,11.17
2018-03-28T05:04:04.032Z,12.07
2018-03-28T05:06:31.656Z,11.40
2018-03-28T05:08:59.293Z,12.00
2018-03-28T05:11:26.932Z,11.90
2018-03-28T05:13:54.580Z,12.47
2018-03-28T05:16:22.203Z,11.00
2018-03-28T05:18:49.816Z,14.57
2018-03-28T05:21:17.481Z,13.60
2018-03-28T05:23:45.096Z,11.03
2018-03-28T05:26:12.729Z,12.43
2018-03-28T05:28:40.345Z,12.80
2018-03-28T05:31:07.984Z,11.53
2018-03-28T05:33:35.601Z,11.77
2018-03-28T05:36:03.253Z,13.43
2018-03-28T05:38:30.869Z,13.17
2018-03-28T05:40:58.509Z,20.77
2018-03-28T05:43:26.145Z,13.53
2018-03-28T05:45:53.801Z,13.27
2018-03-28T05:48:21.464Z,13.00
2018-03-28T05:50:49.096Z,12.00
2018-03-28T05:53:16.781Z,12.53
2018-03-28T05:55:44.452Z,13.17
2018-03-28T05:58:12.060Z,13.40
2018-03-28T06:00:39.693Z,14.07
2018-03-28T06:03:07.329Z,13.60
2018-03-28T06:05:34.969Z,14.30
2018-03-28T06:08:02.596Z,14.50
2018-03-28T06:10:30.328Z,13.97
2018-03-28T06:12:58.025Z,13.43
2018-03-28T06:15:25.657Z,13.23
2018-03-28T06:17:53.316Z,13.60
2018-03-28T06:20:21.072Z,14.20
2018-03-28T06:22:48.685Z,14.30
2018-03-28T06:25:16.320Z,16.67
2018-03-28T06:27:43.932Z,14.63
2018-03-28T06:30:11.565Z,14.33
2018-03-28T06:32:39.181Z,16.30
2018-03-28T06:35:06.816Z,15.83
2018-03-28T06:37:34.506Z,12.20
2018-03-28T06:40:02.150Z,16.90
2018-03-28T06:42:31.263Z,16.63
2018-03-28T06:44:58.905Z,17.83
2018-03-28T06:47:26.529Z,17.60
2018-03-28T06:49:54.141Z,16.90
2018-03-28T06:52:21.780Z,19.10
2018-03-28T06:54:49.484Z,20.20
2018-03-28T06:57:17.125Z,21.60
2018-03-28T06:59:44.750Z,19.50
2018-03-28T07:02:12.405Z,20.70
2018-03-28T07:04:40.016Z,21.43
2018-03-28T07:07:07.648Z,20.23
2018-03-28T07:09:35.261Z,19.50
2018-03-28T07:12:02.916Z,16.03
2018-03-28T07:14:30.533Z,21.47
2018-03-28T07:16:58.172Z,19.60
2018-03-28T07:19:25.788Z,21.20
2018-03-28T07:21:53.469Z,22.40
2018-03-28T07:24:21.076Z,19.23
2018-03-28T07:26:48.793Z,22.03
2018-03-28T07:29:16.457Z,22.17
2018-03-28T07:31:44.116Z,20.90
2018-03-28T07:34:11.741Z,21.37
2018-03-28T07:36:39.539Z,22.07
2018-03-28T07:39:07.152Z,19.83
2018-03-28T07:41:34.794Z,21.83
2018-03-28T07:44:02.488Z,22.03
2018-03-28T07:46:30.293Z,21.37
2018-03-28T07:48:57.904Z,22.27
2018-03-28T07:51:25.540Z,23.80
2018-03-28T07:53:53.153Z,23.43
2018-03-28T07:56:20.849Z,25.97
2018-03-28T07:58:48.465Z,25.17
2018-03-28T08:01:16.110Z,27.23
2018-03-28T08:03:43.837Z,24.93
2018-03-28T08:06:11.468Z,22.70
2018-03-28T08:08:39.077Z,27.33
2018-03-28T08:11:06.710Z,25.80
2018-03-28T08:13:34.325Z,31.93
2018-03-28T08:16:01.974Z,34.60
2018-03-28T08:18:29.593Z,29.07
2018-03-28T08:20:57.226Z,28.97
2018-03-28T08:23:24.932Z,29.93
2018-03-28T08:25:52.588Z,33.13
2018-03-28T08:28:20.260Z,33.60
2018-03-28T08:30:47.876Z,34.93
2018-03-28T08:33:15.521Z,35.00
2018-03-28T08:35:43.247Z,27.73
2018-03-28T08:38:10.898Z,29.77
2018-03-28T08:40:38.573Z,35.37
2018-03-28T08:43:06.236Z,35.30
2018-03-28T08:45:33.994Z,35.90
2018-03-28T08:48:01.672Z,35.30
2018-03-28T08:50:29.285Z,37.10
2018-03-28T08:52:57.065Z,42.10
2018-03-28T08:55:24.686Z,39.50
2018-03-28T08:57:52.329Z,30.87
2018-03-28T09:00:19.938Z,32.13
2018-03-28T09:02:47.572Z,33.63
2018-03-28T09:05:15.192Z,41.47
2018-03-28T09:07:42.865Z,28.00
2018-03-28T09:10:10.480Z,42.07
2018-03-28T09:12:38.129Z,30.57
2018-03-28T09:15:05.749Z,41.57
2018-03-28T09:17:33.389Z,42.03
2018-03-28T09:20:01.072Z,39.27
2018-03-28T09:22:28.712Z,30.30
2018-03-28T09:24:56.334Z,43.40
2018-03-28T09:27:23.972Z,35.77
2018-03-28T09:29:51.584Z,36.23
2018-03-28T09:32:19.216Z,42.60
2018-03-28T09:34:46.829Z,50.70
2018-03-28T09:37:14.469Z,49.90
2018-03-28T09:39:42.176Z,40.73
2018-03-28T09:42:09.816Z,37.50
2018-03-28T09:44:37.509Z,40.97
2018-03-28T09:47:05.269Z,35.10
2018-03-28T09:49:32.888Z,38.20
2018-03-28T09:52:00.541Z,41.77
2018-03-28T09:54:28.248Z,38.87
2018-03-28T09:56:55.885Z,29.03
2018-03-28T09:59:23.500Z,35.40
2018-03-28T10:01:56.852Z,34.17
2018-03-28T10:04:27.279Z,34.60
2018-03-28T10:06:54.932Z,43.90
2018-03-28T10:09:22.624Z,26.43
2018-03-28T10:11:50.288Z,37.67
2018-03-28T10:14:17.927Z,39.13
2018-03-28T10:16:45.889Z,38.27
2018-03-28T10:19:13.528Z,39.10
2018-03-28T10:21:41.246Z,34.67
2018-03-28T10:24:08.880Z,41.50
2018-03-28T10:26:36.492Z,29.57
2018-03-28T10:29:04.237Z,33.23
2018-03-28T10:31:31.882Z,40.43
2018-03-28T10:33:59.560Z,41.23
2018-03-28T10:36:27.177Z,39.50
2018-03-28T10:38:54.816Z,35.03
2018-03-28T10:41:22.444Z,37.13
2018-03-28T10:43:50.097Z,36.33
2018-03-28T10:46:18.009Z,26.87
2018-03-28T10:48:45.649Z,41.37
2018-03-28T10:51:13.305Z,35.80
2018-03-28T10:53:40.976Z,37.70
2018-03-28T10:56:08.623Z,38.73
2018-03-28T10:58:36.383Z,37.90
2018-03-28T11:01:04.008Z,37.97
2018-03-28T11:03:31.716Z,30.70
2018-03-28T11:05:59.333Z,34.87
2018-03-28T11:08:26.974Z,26.37
2018-03-28T11:10:54.590Z,31.07
2018-03-28T11:13:22.232Z,38.03
2018-03-28T11:15:49.853Z,32.70
2018-03-28T11:18:17.501Z,36.27
2018-03-28T11:20:45.114Z,36.37
2018-03-28T11:23:12.748Z,39.60
2018-03-28T11:25:40.361Z,36.30
2018-03-28T11:28:08.001Z,28.63
2018-03-28T11:30:35.700Z,33.80
2018-03-28T11:33:03.340Z,36.47
2018-03-28T11:35:30.957Z,31.13
2018-03-28T11:37:58.604Z,29.20
2018-03-28T11:40:26.249Z,32.13
2018-03-28T11:42:53.886Z,30.80
2018-03-28T11:45:21.567Z,28.60
2018-03-28T11:47:49.227Z,29.20
2018-03-28T11:50:16.845Z,27.10
2018-03-28T11:52:44.564Z,26.67
2018-03-28T11:55:12.203Z,22.10
2018-03-28T11:57:39.821Z,21.93
2018-03-28T12:00:07.456Z,24.37
2018-03-28T12:02:35.073Z,27.50
2018-03-28T12:05:02.724Z,21.97
2018-03-28T12:07:30.437Z,26.50
2018-03-28T12:09:58.072Z,24.63
2018-03-28T12:12:25.689Z,25.57
2018-03-28T12:14:53.417Z,27.73
2018-03-28T12:17:21.084Z,26.43
2018-03-28T12:19:48.728Z,19.40
2018-03-28T12:22:16.340Z,24.20
2018-03-28T12:24:43.977Z,28.90
2018-03-28T12:27:11.637Z,28.93
2018-03-28T12:29:39.301Z,29.57
2018-03-28T12:32:06.960Z,26.43
2018-03-28T12:34:34.630Z,25.53
2018-03-28T12:37:02.298Z,15.23
2018-03-28T12:39:29.920Z,25.03
2018-03-28T12:41:57.545Z,25.87
2018-03-28T12:44:25.185Z,23.67
2018-03-28T12:46:52.832Z,22.07
2018-03-28T12:49:20.485Z,21.77
2018-03-28T12:51:48.196Z,18.70
2018-03-28T12:54:15.892Z,25.77
2018-03-28T12:56:43.509Z,15.03
2018-03-28T12:59:11.186Z,25.27
2018-03-28T13:01:38.803Z,22.33
2018-03-28T13:04:06.444Z,24.00
2018-03-28T13:06:34.069Z,20.57
2018-03-28T13:09:01.800Z,24.17
2018-03-28T13:11:29.465Z,17.67
2018-03-28T13:13:57.229Z,21.33
2018-03-28T13:16:24.893Z,24.37
2018-03-28T13:18:52.533Z,25.97
2018-03-28T13:21:20.221Z,23.03
2018-03-28T13:23:47.880Z,17.67
2018-03-28T13:26:15.526Z,17.77
2018-03-28T13:28:43.206Z,18.30
2018-03-28T13:31:10.844Z,25.70
2018-03-28T13:33:38.461Z,20.40
2018-03-28T13:38:39.025Z,18.97
2018-03-28T13:41:06.742Z,24.10
2018-03-28T13:43:34.357Z,17.87
2018-03-28T13:46:01.969Z,15.20
2018-03-28T13:48:29.612Z,26.40
2018-03-28T13:50:57.226Z,23.93
2018-03-28T13:53:24.952Z,21.00
2018-03-28T13:55:52.616Z,17.43
2018-03-28T13:58:20.256Z,22.03
2018-03-28T14:00:47.870Z,22.07
2018-03-28T14:03:15.504Z,24.67
2018-03-28T14:05:43.209Z,17.97
2018-03-28T14:08:10.828Z,24.77
2018-03-28T14:10:38.451Z,24.77
2018-03-28T14:13:06.084Z,21.00
2018-03-28T14:15:33.693Z,16.73
2018-03-28T14:18:01.378Z,21.37
2018-03-28T14:20:29.041Z,22.40
2018-03-28T14:22:56.648Z,19.67
2018-03-28T14:25:24.285Z,23.00
2018-03-28T14:27:51.896Z,21.40
2018-03-28T14:30:19.593Z,17.00
2018-03-28T14:32:47.253Z,22.87
2018-03-28T14:35:14.890Z,23.50
2018-03-28T14:37:42.532Z,23.53
2018-03-28T14:40:10.160Z,25.13
2018-03-28T14:42:37.776Z,24.07
2018-03-28T14:45:05.413Z,24.77
2018-03-28T14:47:33.033Z,15.20
2018-03-28T14:50:00.653Z,18.97
2018-03-28T14:52:28.349Z,23.60
2018-03-28T14:54:56.013Z,23.43
2018-03-28T14:57:23.640Z,22.17
2018-03-28T14:59:51.256Z,20.20
2018-03-28T15:02:18.897Z,21.10
2018-03-28T15:04:46.511Z,23.03
2018-03-28T15:07:14.152Z,17.27
2018-03-28T15:09:41.761Z,19.90
2018-03-28T15:12:09.396Z,15.63
2018-03-28T15:14:37.088Z,23.12
2018-03-28T15:17:04.721Z,19.83
2018-03-28T15:19:32.432Z,19.17
2018-03-28T15:22:00.068Z,18.73
2018-03-28T15:24:27.685Z,20.10
2018-03-28T15:26:55.296Z,17.53
2018-03-28T15:29:22.933Z,18.47
2018-03-28T15:31:50.545Z,17.97
2018-03-28T15:34:18.181Z,16.67
2018-03-28T15:36:45.796Z,12.30
2018-03-28T15:39:13.623Z,17.57
2018-03-28T15:41:41.233Z,17.10
2018-03-28T15:44:08.868Z,17.50
2018-03-28T15:46:36.523Z,14.00
2018-03-28T15:49:04.285Z,15.37
2018-03-28T15:51:31.905Z,15.40
2018-03-28T15:53:59.524Z,11.13
2018-03-28T15:56:27.273Z,15.57
2018-03-28T15:58:54.933Z,17.33
2018-03-28T16:01:22.690Z,14.00
2018-03-28T16:03:50.356Z,14.03
2018-03-28T16:06:18.025Z,18.70
2018-03-28T16:08:45.653Z,15.83
2018-03-28T16:11:13.297Z,13.70
2018-03-28T16:13:40.912Z,18.07
2018-03-28T16:16:08.543Z,17.00
2018-03-28T16:18:36.233Z,17.30
2018-03-28T16:21:03.868Z,18.83
2018-03-28T16:23:31.481Z,17.10
2018-03-28T16:25:59.121Z,16.67
2018-03-28T16:28:26.741Z,11.03
2018-03-28T16:30:54.376Z,17.37
2018-03-28T16:33:21.989Z,16.53
2018-03-28T16:35:49.601Z,15.30
2018-03-28T16:38:17.336Z,21.20
2018-03-28T16:40:44.993Z,18.70
2018-03-28T16:43:12.633Z,17.90
2018-03-28T16:45:40.320Z,19.90
2018-03-28T16:48:07.977Z,19.07
2018-03-28T16:50:35.590Z,20.10
2018-03-28T16:53:03.233Z,18.10
2018-03-28T16:55:30.845Z,17.30
2018-03-28T16:57:58.533Z,17.30
2018-03-28T17:00:26.197Z,21.60
2018-03-28T17:02:53.865Z,22.77
2018-03-28T17:05:21.477Z,18.87
2018-03-28T17:07:49.300Z,21.70
2018-03-28T17:10:16.850Z,20.73
2018-03-28T17:12:44.465Z,18.07
2018-03-28T17:15:12.173Z,21.60
2018-03-28T17:17:39.834Z,19.73
2018-03-28T17:20:07.468Z,22.97
2018-03-28T17:22:35.081Z,22.50
2018-03-28T17:25:02.820Z,21.00
2018-03-28T17:27:30.457Z,17.27
2018-03-28T17:29:58.112Z,20.10
2018-03-28T17:32:25.737Z,16.60
2018-03-28T17:34:53.378Z,19.10
2018-03-28T17:37:21.037Z,16.20
2018-03-28T17:39:48.665Z,18.17
2018-03-28T17:42:16.300Z,18.90
2018-03-28T17:44:43.922Z,19.77
2018-03-28T17:47:11.581Z,22.10
2018-03-28T17:49:39.244Z,22.13
2018-03-28T17:52:06.877Z,16.10
2018-03-28T17:54:34.496Z,20.00
2018-03-28T17:57:02.235Z,19.57
2018-03-28T17:59:29.898Z,22.20
2018-03-28T18:01:57.536Z,24.77
2018-03-28T18:04:25.228Z,23.70
2018-03-28T18:06:52.985Z,24.40
2018-03-28T18:09:20.609Z,23.80
2018-03-28T18:11:48.221Z,26.70
2018-03-28T18:14:15.865Z,24.53
2018-03-28T18:16:43.481Z,23.97
2018-03-28T18:19:11.197Z,21.80
2018-03-28T18:21:38.864Z,24.17
2018-03-28T18:24:06.505Z,27.33
2018-03-28T18:26:34.118Z,26.13
2018-03-28T18:29:01.756Z,27.53
2018-03-28T18:31:29.412Z,13.13
2018-03-28T18:33:57.049Z,23.77
2018-03-28T18:36:24.736Z,19.90
2018-03-28T18:38:52.376Z,22.93
2018-03-28T18:41:19.989Z,21.60
2018-03-28T18:43:47.621Z,13.10
2018-03-28T18:46:15.248Z,20.70
2018-03-28T18:48:42.868Z,21.10
2018-03-28T18:51:10.508Z,20.37
2018-03-28T18:53:38.120Z,19.53
2018-03-28T18:56:05.832Z,18.60
2018-03-28T18:58:33.449Z,23.70
2018-03-28T19:01:01.085Z,20.23
2018-03-28T19:03:28.811Z,20.73
2018-03-28T19:05:56.485Z,17.33
2018-03-28T19:08:24.097Z,22.63
2018-03-28T19:10:51.804Z,19.67
2018-03-28T19:13:19.417Z,21.90
2018-03-28T19:15:47.133Z,15.37
2018-03-28T19:18:14.797Z,22.23
2018-03-28T19:20:42.446Z,19.50
2018-03-28T19:23:10.058Z,24.20
2018-03-28T19:25:37.673Z,24.70
2018-03-28T19:28:05.307Z,23.57
2018-03-28T19:30:33.004Z,22.47
2018-03-28T19:33:00.669Z,20.10
2018-03-28T19:35:28.337Z,22.27
2018-03-28T19:37:55.981Z,22.63
2018-03-28T19:40:23.662Z,21.67
2018-03-28T19:42:51.320Z,18.83
2018-03-28T19:45:18.988Z,21.90
2018-03-28T19:47:46.636Z,25.03
2018-03-28T19:50:14.249Z,27.00
2018-03-28T19:52:41.889Z,22.10
2018-03-28T19:55:09.500Z,20.10
2018-03-28T19:57:37.200Z,26.10
2018-03-28T20:00:04.809Z,27.33
2018-03-28T20:02:32.425Z,27.80
2018-03-28T20:05:00.060Z,26.60
2018-03-28T20:07:27.676Z,26.50
2018-03-28T20:09:55.309Z,32.20
2018-03-28T20:12:22.944Z,23.27
2018-03-28T20:14:50.581Z,33.23
2018-03-28T20:17:18.192Z,27.97
2018-03-28T20:19:45.852Z,32.33
2018-03-28T20:22:13.517Z,24.43
2018-03-28T20:24:41.180Z,30.50
2018-03-28T20:27:08.788Z,35.97
2018-03-28T20:29:36.424Z,39.40
2018-03-28T20:32:04.069Z,29.43
2018-03-28T20:34:31.829Z,35.00
2018-03-28T20:36:59.445Z,33.33
2018-03-28T20:39:27.153Z,26.07
2018-03-28T20:41:54.774Z,31.17
2018-03-28T20:44:22.416Z,36.00
2018-03-28T20:46:50.053Z,38.07
2018-03-28T20:49:17.713Z,40.57
2018-03-28T20:51:45.353Z,40.93
2018-03-28T20:54:13.038Z,45.17
2018-03-28T20:56:40.682Z,39.53
2018-03-28T20:59:08.357Z,44.97
2018-03-28T21:01:36.018Z,41.70
2018-03-28T21:04:03.633Z,38.73
2018-03-28T21:06:31.341Z,44.10
2018-03-28T21:08:59.012Z,38.97
2018-03-28T21:11:26.644Z,45.57
2018-03-28T21:13:54.260Z,47.70
2018-03-28T21:16:21.905Z,44.90
2018-03-28T21:18:49.520Z,45.37
2018-03-28T21:21:17.216Z,43.50
2018-03-28T21:23:44.880Z,41.37
2018-03-28T21:26:12.492Z,31.77
2018-03-28T21:28:40.128Z,45.67
2018-03-28T21:31:07.745Z,44.70
2018-03-28T21:33:35.389Z,49.57
2018-03-28T21:36:03.001Z,45.57
2018-03-28T21:38:30.676Z,45.10
2018-03-28T21:40:58.293Z,47.90
2018-03-28T21:43:25.976Z,45.10
2018-03-28T21:45:53.594Z,50.50
2018-03-28T21:48:21.237Z,40.57
2018-03-28T21:50:48.868Z,48.73
2018-03-28T21:53:16.526Z,44.17
2018-03-28T21:55:44.148Z,50.60
2018-03-28T21:58:11.776Z,50.10
2018-03-28T22:00:39.516Z,47.80
2018-03-28T22:03:07.181Z,40.67
2018-03-28T22:05:34.840Z,42.03
2018-03-28T22:08:02.510Z,45.53
2018-03-28T22:10:30.144Z,44.17
2018-03-28T22:12:57.764Z,35.10
2018-03-28T22:15:25.412Z,43.97
2018-03-28T22:17:53.025Z,45.30
2018-03-28T22:20:20.675Z,47.67
2018-03-28T22:22:48.285Z,47.07
2018-03-28T22:25:16.038Z,41.67
2018-03-28T22:27:43.705Z,35.60
2018-03-28T22:30:11.312Z,46.37
2018-03-28T22:32:39.029Z,45.70
2018-03-28T22:35:06.645Z,46.63
2018-03-28T22:37:34.281Z,36.60
2018-03-28T22:40:01.892Z,42.80
2018-03-28T22:42:29.576Z,46.37
2018-03-28T22:44:57.205Z,42.10
2018-03-28T22:47:24.841Z,41.43
2018-03-28T22:49:52.453Z,41.87
2018-03-28T22:52:20.115Z,40.23
2018-03-28T22:54:47.781Z,38.43
2018-03-28T22:57:15.553Z,47.17
2018-03-28T22:59:43.169Z,45.60
2018-03-28T23:02:10.782Z,46.33
2018-03-28T23:04:38.416Z,42.40
2018-03-28T23:07:06.020Z,41.50
2018-03-28T23:09:33.653Z,43.20
2018-03-28T23:12:01.320Z,45.07
2018-03-28T23:14:28.952Z,42.53
2018-03-28T23:16:56.653Z,35.00
2018-03-28T23:19:24.313Z,42.03
2018-03-28T23:21:51.981Z,38.53
2018-03-28T23:24:19.612Z,34.53
2018-03-28T23:26:47.229Z,34.70
2018-03-28T23:29:14.962Z,40.10
2018-03-28T23:31:42.573Z,38.47
2018-03-28T23:34:10.184Z,40.83
2018-03-28T23:36:37.821Z,39.40
2018-03-28T23:39:05.433Z,41.83
2018-03-28T23:41:33.169Z,42.03
2018-03-28T23:44:00.833Z,35.70
2018-03-28T23:46:28.469Z,40.47
2018-03-28T23:48:56.082Z,38.70
2018-03-28T23:51:23.718Z,41.47
2018-03-28T23:53:51.325Z,42.73
2018-03-28T23:56:18.957Z,42.57
2018-03-28T23:58:46.564Z,44.93
